Terminal Aerodrome Forecast
Issued by NWS Fort Wayne, IN

Home | Current Version | Previous Version | Text Only | Print | Product List | Glossary On
Versions: 1 2 3 4 5 6 7 8 9 10 11 12 13 14 15 16 17 18 19 20 21 22 23
000
FTUS43 KIWX 062300
TAFFWA
TAF
KFWA 062337Z 0700/0724 07004KT P6SM FEW060
     FM070700 VRB03KT 3SM BR SCT250
      TEMPO 0709/0713 1SM BR
     FM071400 18011KT P6SM SCT060=

USA.gov is the U.S. government's official web portal to all federal, state and local government web resources and services.